Time;durP1;ratioP1;P1;durP2;ratioP2;P2;SDS_P1;SDS_P2;PMS_P1;PMS_P2;Temp;Humidity;BMP_temperature;BMP_pressure;BME280_temperature;BME280_humidity;BME280_pressure;Samples;Min_cycle;Max_cycle;Signal;HPM_P1;HPM_P2
2023/04/12 00:01:13;;;;;;;0.32;0.32;;;9.00;99.90;;;;;;5011969;28;20053;-63
2023/04/12 00:03:38;;;;;;;0.10;0.10;;;9.00;99.90;;;;;;5013293;28;20046;-63
2023/04/12 00:06:06;;;;;;;0.15;0.15;;;9.00;99.90;;;;;;5017120;28;20560;-63
2023/04/12 00:08:32;;;;;;;0.10;0.10;;;9.10;99.90;;;;;;5013175;28;20398;-63
2023/04/12 00:10:59;;;;;;;0.10;0.10;;;9.00;99.90;;;;;;5023314;28;20055;-63
2023/04/12 00:13:25;;;;;;;0.30;0.30;;;9.10;99.90;;;;;;5018804;28;20084;-63
2023/04/12 00:15:50;;;;;;;0.05;0.05;;;9.10;99.90;;;;;;5030167;28;20045;-64
2023/04/12 00:18:16;;;;;;;0.10;0.10;;;9.20;99.90;;;;;;5028120;28;20042;-63
2023/04/12 00:20:42;;;;;;;0.10;0.10;;;9.20;99.90;;;;;;5022361;28;20037;-63
2023/04/12 00:23:12;;;;;;;0.10;0.10;;;9.20;99.90;;;;;;5011477;28;20049;-63
2023/04/12 00:25:38;;;;;;;0.05;0.05;;;9.20;99.90;;;;;;5014278;28;20046;-63
2023/04/12 00:28:04;;;;;;;1.80;1.65;;;9.20;99.90;;;;;;5017656;28;20053;-63
2023/04/12 00:30:30;;;;;;;0.10;0.10;;;9.20;99.90;;;;;;5014877;28;20038;-63
2023/04/12 00:32:56;;;;;;;0.10;0.10;;;9.30;99.90;;;;;;5016090;28;20094;-63
2023/04/12 00:35:22;;;;;;;0.10;0.10;;;9.20;99.90;;;;;;5024679;28;20053;-63
2023/04/12 00:37:48;;;;;;;0.10;0.10;;;9.20;99.90;;;;;;5013171;28;20044;-63
2023/04/12 00:40:14;;;;;;;0.10;0.10;;;9.20;99.90;;;;;;5009913;28;20061;-63
2023/04/12 00:42:39;;;;;;;0.10;0.10;;;9.20;99.90;;;;;;5019890;28;20038;-64
2023/04/12 00:45:06;;;;;;;2.80;2.17;;;9.20;99.90;;;;;;5020458;28;20135;-63
2023/04/12 00:47:34;;;;;;;3.40;1.40;;;9.10;99.90;;;;;;5019359;28;20045;-63
2023/04/12 00:50:02;;;;;;;0.73;0.73;;;9.10;99.90;;;;;;5020193;28;20049;-63
2023/04/12 00:52:33;;;;;;;3.65;3.03;;;9.10;99.90;;;;;;5025309;28;20440;-63
2023/04/12 00:55:02;;;;;;;0.10;0.10;;;9.10;99.90;;;;;;5014403;28;20056;-64
2023/04/12 00:57:35;;;;;;;0.10;0.10;;;9.10;99.90;;;;;;5022346;28;20046;-63
2023/04/12 01:00:02;;;;;;;0.20;0.20;;;9.10;99.90;;;;;;5023838;28;20054;-64
2023/04/12 01:02:29;;;;;;;0.10;0.10;;;9.10;99.90;;;;;;5012336;28;20049;-63
2023/04/12 01:04:57;;;;;;;0.10;0.10;;;9.10;99.90;;;;;;5023331;28;20069;-63
2023/04/12 01:07:46;;;;;;;0.10;0.10;;;9.10;99.90;;;;;;5015513;28;20072;-64
2023/04/12 01:10:26;;;;;;;0.10;0.10;;;9.10;99.90;;;;;;5016292;28;20041;-63
2023/04/12 01:13:26;;;;;;;0.10;0.10;;;9.10;99.90;;;;;;5015514;28;20060;-63
2023/04/12 01:16:19;;;;;;;0.20;0.20;;;9.00;99.90;;;;;;5019656;28;20077;-63
2023/04/12 01:18:50;;;;;;;0.00;0.00;;;9.00;99.90;;;;;;5003642;28;20093;-63
2023/04/12 01:21:19;;;;;;;0.17;0.17;;;9.00;99.90;;;;;;5009239;28;20042;-63
2023/04/12 01:24:17;;;;;;;0.10;0.10;;;9.00;99.90;;;;;;5019153;28;20389;-63
2023/04/12 01:26:46;;;;;;;0.10;0.10;;;9.00;99.90;;;;;;5009841;28;20050;-64
2023/04/12 01:29:14;;;;;;;0.10;0.10;;;9.00;99.90;;;;;;5019872;28;20037;-63
2023/04/12 01:31:58;;;;;;;0.10;0.10;;;9.00;99.90;;;;;;5022624;28;20168;-64
2023/04/12 01:34:27;;;;;;;0.10;0.10;;;8.90;99.90;;;;;;5014328;28;20171;-63
2023/04/12 01:36:54;;;;;;;0.10;0.10;;;9.00;99.90;;;;;;5017773;28;20042;-64
2023/04/12 01:39:20;;;;;;;0.00;0.00;;;9.00;99.90;;;;;;5011687;28;20045;-64
2023/04/12 01:41:47;;;;;;;1.42;1.25;;;8.90;99.90;;;;;;5039927;28;20049;-63
2023/04/12 01:44:17;;;;;;;0.08;0.08;;;9.00;99.90;;;;;;5016555;28;20565;-64
2023/04/12 01:46:46;;;;;;;0.10;0.10;;;8.90;99.90;;;;;;5017275;28;20065;-64
2023/04/12 01:49:12;;;;;;;0.10;0.10;;;8.90;99.90;;;;;;5020319;28;20045;-64
2023/04/12 01:52:10;;;;;;;0.13;0.13;;;8.90;99.90;;;;;;5021774;28;20053;-64
2023/04/12 01:54:39;;;;;;;0.32;0.32;;;8.90;99.90;;;;;;5002700;28;20112;-64
2023/04/12 01:57:07;;;;;;;0.00;0.00;;;8.90;99.90;;;;;;5014515;28;20046;-64
2023/04/12 01:59:39;;;;;;;1.85;1.75;;;8.90;99.90;;;;;;5037205;28;20069;-64
2023/04/12 02:02:06;;;;;;;0.10;0.10;;;8.90;99.90;;;;;;5011822;28;20045;-63
2023/04/12 02:04:34;;;;;;;0.10;0.10;;;8.90;99.90;;;;;;5030182;28;20059;-64
2023/04/12 02:07:00;;;;;;;0.10;0.10;;;8.90;99.90;;;;;;5017752;28;20042;-64
2023/04/12 02:09:26;;;;;;;0.00;0.00;;;8.90;99.90;;;;;;5022919;28;20045;-64
2023/04/12 02:11:51;;;;;;;0.28;0.28;;;8.90;99.90;;;;;;5012429;28;20442;-64
2023/04/12 02:14:18;;;;;;;0.10;0.10;;;8.90;99.90;;;;;;5020783;28;20049;-64
2023/04/12 02:16:44;;;;;;;0.00;0.00;;;8.90;99.90;;;;;;5015676;28;20059;-64
2023/04/12 02:19:13;;;;;;;0.40;0.40;;;8.90;99.90;;;;;;5024803;28;20073;-63
2023/04/12 02:21:40;;;;;;;0.55;0.50;;;8.90;99.90;;;;;;5019058;28;20049;-63
2023/04/12 02:24:07;;;;;;;0.10;0.10;;;8.90;99.90;;;;;;5028585;28;20137;-63
2023/04/12 02:26:32;;;;;;;0.28;0.28;;;8.90;99.90;;;;;;5021623;28;20173;-64
2023/04/12 02:28:58;;;;;;;0.00;0.00;;;8.90;99.90;;;;;;5016078;28;20584;-64
2023/04/12 02:31:23;;;;;;;0.00;0.00;;;8.90;99.90;;;;;;5028728;28;20052;-64
2023/04/12 02:33:49;;;;;;;0.30;0.30;;;9.00;99.90;;;;;;5029806;28;20430;-64
2023/04/12 02:36:15;;;;;;;0.17;0.17;;;8.90;99.90;;;;;;5008515;28;20054;-64
2023/04/12 02:38:40;;;;;;;0.10;0.10;;;9.00;99.90;;;;;;5027234;28;20065;-64
2023/04/12 02:41:06;;;;;;;0.10;0.10;;;8.90;99.90;;;;;;5019874;28;20132;-64
2023/04/12 02:43:32;;;;;;;0.10;0.10;;;8.90;99.90;;;;;;5036515;28;20423;-64
2023/04/12 02:45:58;;;;;;;0.15;0.15;;;8.90;99.90;;;;;;5023551;28;20045;-63
2023/04/12 02:48:24;;;;;;;0.10;0.10;;;8.90;99.90;;;;;;5016576;28;20100;-63
2023/04/12 02:50:49;;;;;;;0.10;0.10;;;8.90;99.90;;;;;;5031371;28;20052;-63
2023/04/12 02:53:15;;;;;;;0.28;0.28;;;8.90;99.90;;;;;;5031053;28;20053;-63
2023/04/12 02:55:41;;;;;;;0.05;0.05;;;8.90;99.90;;;;;;5018437;28;20045;-64
2023/04/12 02:58:06;;;;;;;0.00;0.00;;;8.90;99.90;;;;;;5032055;28;20048;-63
2023/04/12 03:00:32;;;;;;;0.00;0.00;;;8.90;99.90;;;;;;5022045;28;20038;-64
2023/04/12 03:03:00;;;;;;;0.00;0.00;;;8.90;99.90;;;;;;5018257;28;20500;-64
2023/04/12 03:05:26;;;;;;;0.82;0.57;;;8.90;99.90;;;;;;5017440;28;20605;-64
2023/04/12 03:07:52;;;;;;;0.00;0.00;;;8.90;99.90;;;;;;5021559;28;20491;-64
2023/04/12 03:10:17;;;;;;;0.10;0.10;;;8.90;99.90;;;;;;5027944;28;20053;-64
2023/04/12 03:12:43;;;;;;;1.17;1.17;;;8.90;99.90;;;;;;5030995;28;20118;-63
2023/04/12 03:15:09;;;;;;;0.10;0.10;;;8.80;99.90;;;;;;5031245;28;20045;-63
2023/04/12 03:17:34;;;;;;;0.10;0.10;;;8.80;99.90;;;;;;5050719;28;20629;-64
2023/04/12 03:20:08;;;;;;;0.20;0.20;;;8.80;99.90;;;;;;5030989;28;20055;-64
2023/04/12 03:22:33;;;;;;;0.00;0.00;;;8.80;99.90;;;;;;5026307;28;20045;-64
2023/04/12 03:25:00;;;;;;;0.30;0.30;;;8.80;99.90;;;;;;5029630;28;20136;-64
2023/04/12 03:27:25;;;;;;;0.10;0.10;;;8.80;99.90;;;;;;5032255;28;20113;-64
2023/04/12 03:29:51;;;;;;;0.03;0.03;;;8.80;99.90;;;;;;5030599;28;20045;-64
2023/04/12 03:32:17;;;;;;;0.05;0.05;;;8.70;99.90;;;;;;5025593;28;20042;-63
2023/04/12 03:34:44;;;;;;;0.10;0.10;;;8.70;99.90;;;;;;5022274;28;20493;-64
2023/04/12 03:37:09;;;;;;;0.10;0.10;;;8.70;99.90;;;;;;5013156;28;20441;-64
2023/04/12 03:39:35;;;;;;;0.10;0.10;;;8.70;99.90;;;;;;5025805;28;20038;-64
2023/04/12 03:42:01;;;;;;;0.00;0.00;;;8.70;99.90;;;;;;5017780;28;20392;-64
2023/04/12 03:44:26;;;;;;;0.10;0.10;;;8.70;99.90;;;;;;5020407;28;20056;-64
2023/04/12 03:46:52;;;;;;;0.10;0.10;;;8.70;99.90;;;;;;5030906;28;20044;-64
2023/04/12 03:49:18;;;;;;;0.10;0.10;;;8.70;99.90;;;;;;5022452;28;20131;-64
2023/04/12 03:51:44;;;;;;;0.10;0.10;;;8.70;99.90;;;;;;5027011;28;20091;-63
2023/04/12 03:54:14;;;;;;;0.08;0.08;;;8.70;99.90;;;;;;5031946;28;20125;-64
2023/04/12 03:56:39;;;;;;;0.00;0.00;;;8.70;99.90;;;;;;5025554;28;20041;-64
2023/04/12 03:59:08;;;;;;;0.10;0.10;;;8.70;99.90;;;;;;5030611;28;20049;-63
2023/04/12 04:01:34;;;;;;;0.10;0.10;;;8.70;99.90;;;;;;5025617;28;20037;-64
2023/04/12 04:04:00;;;;;;;0.10;0.10;;;8.60;99.90;;;;;;5024124;28;20037;-64
2023/04/12 04:06:28;;;;;;;0.10;0.10;;;8.60;99.90;;;;;;5019434;28;20124;-64
2023/04/12 04:08:55;;;;;;;0.10;0.10;;;8.60;99.90;;;;;;5026785;28;20045;-64
2023/04/12 04:11:20;;;;;;;0.03;0.03;;;8.60;99.90;;;;;;5028254;28;20060;-64
2023/04/12 04:13:46;;;;;;;0.75;0.75;;;8.60;99.90;;;;;;5025487;28;20041;-64
2023/04/12 04:16:11;;;;;;;0.30;0.30;;;8.50;99.90;;;;;;5019636;28;20067;-64
2023/04/12 04:18:37;;;;;;;0.10;0.10;;;8.60;99.90;;;;;;5027872;28;20077;-64
2023/04/12 04:21:02;;;;;;;0.10;0.10;;;8.60;99.90;;;;;;5020743;28;20045;-64
2023/04/12 04:23:37;;;;;;;0.20;0.20;;;8.60;99.90;;;;;;5022049;28;20128;-64
2023/04/12 04:26:09;;;;;;;0.35;0.35;;;8.50;99.90;;;;;;5027830;28;20543;-64
2023/04/12 04:28:40;;;;;;;0.08;0.08;;;8.60;99.90;;;;;;5031811;28;20053;-64
2023/04/12 04:31:09;;;;;;;0.10;0.10;;;8.50;99.90;;;;;;5022010;28;20045;-64
2023/04/12 04:33:35;;;;;;;0.00;0.00;;;8.50;99.90;;;;;;5021695;28;20064;-64
2023/04/12 04:36:03;;;;;;;0.63;0.63;;;8.50;99.90;;;;;;5018288;28;20104;-64
2023/04/12 04:38:31;;;;;;;0.10;0.10;;;8.50;99.90;;;;;;5013923;28;20050;-64
2023/04/12 04:40:58;;;;;;;0.10;0.10;;;8.50;99.90;;;;;;5027705;28;20041;-64
2023/04/12 04:43:25;;;;;;;0.00;0.00;;;8.50;99.90;;;;;;5029476;28;20041;-64
2023/04/12 04:45:54;;;;;;;0.10;0.10;;;8.50;99.90;;;;;;5014882;28;20492;-64
2023/04/12 04:48:20;;;;;;;0.10;0.10;;;8.50;99.90;;;;;;5013693;28;20859;-64
2023/04/12 04:50:46;;;;;;;0.10;0.10;;;8.50;99.90;;;;;;5026284;28;20065;-64
2023/04/12 04:53:12;;;;;;;0.00;0.00;;;8.50;99.90;;;;;;5018814;28;20057;-64
2023/04/12 04:55:37;;;;;;;0.22;0.22;;;8.50;99.90;;;;;;5028298;28;20041;-64
2023/04/12 04:58:05;;;;;;;0.10;0.10;;;8.40;99.90;;;;;;5027514;28;20088;-64
2023/04/12 05:00:30;;;;;;;0.10;0.10;;;8.50;99.90;;;;;;5028499;28;20041;-64
2023/04/12 05:02:56;;;;;;;0.43;0.43;;;8.40;99.90;;;;;;5027954;28;20180;-64
2023/04/12 05:05:22;;;;;;;0.10;0.10;;;8.40;99.90;;;;;;5022421;28;20088;-64
2023/04/12 05:07:48;;;;;;;0.10;0.10;;;8.40;99.90;;;;;;5017012;28;20038;-64
2023/04/12 05:10:13;;;;;;;0.00;0.00;;;8.40;99.90;;;;;;5021137;28;20049;-64
2023/04/12 05:12:39;;;;;;;0.10;0.10;;;8.40;99.90;;;;;;5019591;28;20103;-64
2023/04/12 05:15:06;;;;;;;0.10;0.10;;;8.40;99.90;;;;;;5024259;28;20481;-64
2023/04/12 05:17:33;;;;;;;0.05;0.05;;;8.40;99.90;;;;;;5027214;28;20049;-64
2023/04/12 05:19:59;;;;;;;0.10;0.10;;;8.40;99.90;;;;;;5014491;28;20120;-64
2023/04/12 05:22:28;;;;;;;0.10;0.10;;;8.40;99.90;;;;;;5025088;28;20481;-64
2023/04/12 05:24:54;;;;;;;0.10;0.10;;;8.40;99.90;;;;;;5028322;28;20202;-65
2023/04/12 05:27:20;;;;;;;0.10;0.10;;;8.40;99.90;;;;;;5027060;28;20449;-64
2023/04/12 05:29:46;;;;;;;0.00;0.00;;;8.40;99.90;;;;;;5028363;28;20042;-64
2023/04/12 05:32:12;;;;;;;0.03;0.03;;;8.40;99.90;;;;;;5026972;28;20038;-64
2023/04/12 05:34:37;;;;;;;0.10;0.10;;;8.40;99.90;;;;;;5030995;28;20440;-64
2023/04/12 05:37:04;;;;;;;0.00;0.00;;;8.40;99.90;;;;;;5017536;28;20532;-64
2023/04/12 05:39:30;;;;;;;0.08;0.08;;;8.30;99.90;;;;;;5019680;28;20612;-65
2023/04/12 05:41:56;;;;;;;0.10;0.10;;;8.40;99.90;;;;;;5026939;28;20037;-64
2023/04/12 05:44:21;;;;;;;0.10;0.10;;;8.30;99.90;;;;;;5019335;28;20486;-65
2023/04/12 05:46:47;;;;;;;0.10;0.10;;;8.30;99.90;;;;;;5017744;28;20049;-65
2023/04/12 05:49:12;;;;;;;0.20;0.20;;;8.40;99.90;;;;;;5018168;28;20456;-65
2023/04/12 05:51:38;;;;;;;0.10;0.10;;;8.30;99.90;;;;;;5010904;28;20054;-65
2023/04/12 05:54:06;;;;;;;0.10;0.10;;;8.40;99.90;;;;;;5028096;28;20079;-65
2023/04/12 05:56:32;;;;;;;0.10;0.10;;;8.30;99.90;;;;;;5021914;28;20478;-65
2023/04/12 05:59:00;;;;;;;1.40;1.30;;;8.40;99.90;;;;;;5026456;28;20041;-65
2023/04/12 06:01:33;;;;;;;0.20;0.20;;;8.30;99.90;;;;;;5023885;28;20087;-64
2023/04/12 06:04:01;;;;;;;0.50;0.50;;;8.30;99.90;;;;;;5029749;28;20033;-64
2023/04/12 06:06:29;;;;;;;0.10;0.10;;;8.40;99.90;;;;;;5015890;28;20304;-64
2023/04/12 06:08:56;;;;;;;0.10;0.10;;;8.40;99.90;;;;;;5015232;28;20046;-65
2023/04/12 06:11:23;;;;;;;0.45;0.45;;;8.40;99.90;;;;;;5014832;28;20121;-64
2023/04/12 06:13:48;;;;;;;0.10;0.10;;;8.30;99.90;;;;;;5023177;28;20061;-65
2023/04/12 06:16:14;;;;;;;0.00;0.00;;;8.40;99.90;;;;;;5029540;28;20053;-65
2023/04/12 06:18:40;;;;;;;0.10;0.10;;;8.30;99.90;;;;;;5028769;28;20041;-65
2023/04/12 06:21:05;;;;;;;1.17;0.63;;;8.40;99.90;;;;;;5021714;28;20080;-65
2023/04/12 06:23:31;;;;;;;4.30;1.50;;;8.40;99.90;;;;;;5032342;28;20080;-64
2023/04/12 06:25:56;;;;;;;0.10;0.10;;;8.40;99.90;;;;;;5026554;28;20104;-65
2023/04/12 06:28:22;;;;;;;2.65;1.85;;;8.40;99.90;;;;;;5024569;28;20042;-65
2023/04/12 06:30:48;;;;;;;0.30;0.30;;;8.40;99.90;;;;;;5024740;28;20456;-65
2023/04/12 06:33:14;;;;;;;0.10;0.10;;;8.40;99.90;;;;;;5032036;28;20057;-64
2023/04/12 06:35:40;;;;;;;0.10;0.10;;;8.40;99.90;;;;;;5034367;28;20152;-65
2023/04/12 06:38:06;;;;;;;0.20;0.20;;;8.50;99.90;;;;;;5024396;28;20445;-65
2023/04/12 06:40:31;;;;;;;0.05;0.05;;;8.40;99.90;;;;;;5030998;28;20047;-65
2023/04/12 06:42:57;;;;;;;0.10;0.10;;;8.40;99.90;;;;;;5031281;28;20052;-66
2023/04/12 06:45:22;;;;;;;0.10;0.10;;;8.40;99.90;;;;;;5019076;28;20519;-65
2023/04/12 06:47:48;;;;;;;0.05;0.05;;;8.40;99.90;;;;;;5030621;28;20152;-66
2023/04/12 06:50:14;;;;;;;0.00;0.00;;;8.40;99.90;;;;;;5020253;28;20065;-66
2023/04/12 06:52:40;;;;;;;0.10;0.10;;;8.40;99.90;;;;;;5018849;28;20468;-66
2023/04/12 06:55:06;;;;;;;0.10;0.10;;;8.40;99.90;;;;;;5023933;28;20046;-65
2023/04/12 06:57:32;;;;;;;0.30;0.30;;;8.40;99.90;;;;;;5024977;28;20038;-65
2023/04/12 06:59:57;;;;;;;1.52;1.00;;;8.40;99.90;;;;;;5017372;28;20056;-64
2023/04/12 07:02:23;;;;;;;0.10;0.10;;;8.40;99.90;;;;;;5023687;28;20049;-65
2023/04/12 07:04:55;;;;;;;0.10;0.10;;;8.50;99.90;;;;;;5024235;28;20044;-65
2023/04/12 07:07:20;;;;;;;0.20;0.20;;;8.50;99.90;;;;;;5026213;28;20042;-65
2023/04/12 07:09:51;;;;;;;0.10;0.10;;;8.50;99.90;;;;;;5023712;28;20472;-65
2023/04/12 07:12:16;;;;;;;0.10;0.10;;;8.50;99.90;;;;;;5022813;28;20549;-65
2023/04/12 07:14:42;;;;;;;0.10;0.10;;;8.50;99.90;;;;;;5020816;28;20124;-65
2023/04/12 07:17:08;;;;;;;0.10;0.10;;;8.50;99.90;;;;;;5019587;28;20077;-65
2023/04/12 07:19:33;;;;;;;0.10;0.10;;;8.50;99.90;;;;;;5027549;28;20061;-65
2023/04/12 07:21:59;;;;;;;0.00;0.00;;;8.50;99.90;;;;;;5031266;28;20037;-65
2023/04/12 07:24:25;;;;;;;0.10;0.10;;;8.50;99.90;;;;;;5025582;28;20053;-65
2023/04/12 07:26:53;;;;;;;0.10;0.10;;;8.50;99.90;;;;;;5013335;28;20045;-65
2023/04/12 07:29:19;;;;;;;0.20;0.20;;;8.50;99.90;;;;;;5029687;28;20056;-65
2023/04/12 07:31:45;;;;;;;0.10;0.10;;;8.60;99.90;;;;;;5020933;28;20413;-65
2023/04/12 07:34:11;;;;;;;0.10;0.10;;;8.60;99.90;;;;;;5026730;28;20390;-65
2023/04/12 07:36:37;;;;;;;0.10;0.10;;;8.60;99.90;;;;;;5031567;28;20397;-65
2023/04/12 07:39:03;;;;;;;0.10;0.10;;;8.60;99.90;;;;;;5030516;28;20117;-66
2023/04/12 07:41:28;;;;;;;0.30;0.30;;;8.60;99.90;;;;;;5019916;28;20430;-66
2023/04/12 07:43:54;;;;;;;2.40;1.10;;;8.60;99.90;;;;;;5028785;28;20409;-66
2023/04/12 07:46:20;;;;;;;0.10;0.10;;;8.60;99.90;;;;;;5022866;28;20478;-66
2023/04/12 07:48:45;;;;;;;0.10;0.10;;;8.60;99.90;;;;;;5029256;28;20084;-66
2023/04/12 07:51:11;;;;;;;0.00;0.00;;;8.60;99.90;;;;;;5019422;28;20065;-66
2023/04/12 07:53:37;;;;;;;0.10;0.10;;;8.60;99.90;;;;;;5017761;28;20500;-66
2023/04/12 07:56:06;;;;;;;0.10;0.10;;;8.60;99.90;;;;;;5029555;28;20046;-67
2023/04/12 07:58:33;;;;;;;0.10;0.10;;;8.70;99.90;;;;;;5018283;28;20050;-65
2023/04/12 08:00:59;;;;;;;0.08;0.08;;;8.70;99.90;;;;;;5018221;28;20038;-66
2023/04/12 08:03:25;;;;;;;0.10;0.10;;;8.70;99.90;;;;;;5025548;28;20034;-65
2023/04/12 08:05:54;;;;;;;0.43;0.32;;;8.70;99.90;;;;;;5011813;28;20583;-65
2023/04/12 08:08:22;;;;;;;0.00;0.00;;;8.70;99.90;;;;;;5014677;28;20116;-64
2023/04/12 08:10:49;;;;;;;0.10;0.10;;;8.70;99.90;;;;;;5012009;28;20099;-64
2023/04/12 08:13:15;;;;;;;0.00;0.00;;;8.70;99.90;;;;;;5028742;28;20053;-64
2023/04/12 08:15:42;;;;;;;0.10;0.10;;;8.70;99.90;;;;;;5030287;28;20037;-64
2023/04/12 08:18:08;;;;;;;0.17;0.17;;;8.80;99.90;;;;;;5020318;28;20123;-64
2023/04/12 08:20:34;;;;;;;0.10;0.10;;;8.80;99.90;;;;;;5022710;28;20057;-64
2023/04/12 08:23:00;;;;;;;0.80;0.63;;;8.80;99.90;;;;;;5029544;28;20106;-64
2023/04/12 08:25:25;;;;;;;0.00;0.00;;;8.80;99.90;;;;;;5027100;28;20373;-64
2023/04/12 08:27:51;;;;;;;0.10;0.10;;;8.90;99.90;;;;;;5021704;28;20033;-64
2023/04/12 08:30:18;;;;;;;0.20;0.20;;;9.00;99.90;;;;;;5024584;28;20060;-64
2023/04/12 08:32:43;;;;;;;0.03;0.03;;;9.20;99.90;;;;;;5014208;28;20040;-64
2023/04/12 08:35:09;;;;;;;0.40;0.40;;;9.40;99.90;;;;;;5023333;28;20045;-64
2023/04/12 08:37:35;;;;;;;0.30;0.30;;;9.40;99.90;;;;;;5030682;28;20038;-64
2023/04/12 08:40:05;;;;;;;0.10;0.10;;;9.50;99.90;;;;;;5017238;28;20049;-64
2023/04/12 08:42:33;;;;;;;0.10;0.10;;;9.70;99.90;;;;;;5021460;28;20036;-64
2023/04/12 08:45:02;;;;;;;0.10;0.10;;;9.70;99.90;;;;;;5030972;28;20396;-64
2023/04/12 08:47:28;;;;;;;0.10;0.10;;;9.80;99.90;;;;;;5017571;28;20041;-64
2023/04/12 08:49:56;;;;;;;0.10;0.10;;;9.80;99.90;;;;;;5023998;28;20405;-65
2023/04/12 08:52:21;;;;;;;0.10;0.10;;;9.90;99.90;;;;;;5018309;28;20053;-65
2023/04/12 08:54:47;;;;;;;0.20;0.20;;;9.90;99.90;;;;;;5036838;28;20045;-65
2023/04/12 08:57:14;;;;;;;0.10;0.10;;;10.00;99.90;;;;;;5012958;28;20056;-65
2023/04/12 08:59:42;;;;;;;0.00;0.00;;;10.10;99.90;;;;;;5021422;28;20063;-65
2023/04/12 09:02:08;;;;;;;0.00;0.00;;;10.20;99.90;;;;;;5029763;28;20045;-65
2023/04/12 09:04:49;;;;;;;0.00;0.00;;;10.30;99.90;;;;;;5019049;28;20096;-65
2023/04/12 09:07:16;;;;;;;0.15;0.15;;;10.90;99.90;;;;;;5018974;28;20766;-65
2023/04/12 09:09:42;;;;;;;0.10;0.10;;;11.40;99.90;;;;;;5012968;28;20038;-64
2023/04/12 09:12:08;;;;;;;1.30;0.88;;;11.80;99.90;;;;;;5021944;28;20124;-64
2023/04/12 09:14:34;;;;;;;0.13;0.13;;;12.60;99.90;;;;;;5028173;28;20045;-64
2023/04/12 09:17:00;;;;;;;0.75;0.57;;;13.00;99.90;;;;;;5018443;28;20406;-65
2023/04/12 09:19:33;;;;;;;0.32;0.32;;;13.60;99.90;;;;;;5017693;28;20029;-65
2023/04/12 09:21:59;;;;;;;1.35;0.90;;;14.10;99.90;;;;;;5028656;28;20044;-65
2023/04/12 09:24:24;;;;;;;0.00;0.00;;;14.20;99.90;;;;;;5025721;28;20045;-64
2023/04/12 09:27:06;;;;;;;0.38;0.35;;;14.00;99.90;;;;;;5012435;28;20038;-65
2023/04/12 09:29:33;;;;;;;0.00;0.00;;;13.60;99.90;;;;;;5027745;28;20116;-65
2023/04/12 09:32:04;;;;;;;0.20;0.20;;;13.10;99.90;;;;;;5016550;28;20057;-65
2023/04/12 09:34:30;;;;;;;0.10;0.10;;;13.00;99.90;;;;;;5012435;28;20115;-65
2023/04/12 09:36:56;;;;;;;0.00;0.00;;;13.00;99.90;;;;;;5015357;28;20049;-65
2023/04/12 09:39:32;;;;;;;0.00;0.00;;;13.20;99.90;;;;;;5025747;28;20095;-65
2023/04/12 09:42:06;;;;;;;1.70;1.10;;;13.10;99.90;;;;;;5021217;28;20056;-66
2023/04/12 09:44:33;;;;;;;2.05;0.52;;;12.80;99.90;;;;;;5023723;28;20058;-65
2023/04/12 09:47:00;;;;;;;0.65;0.45;;;12.60;99.90;;;;;;5024125;28;20757;-66
2023/04/12 09:49:40;;;;;;;0.08;0.08;;;12.70;99.90;;;;;;5023042;28;20088;-65
2023/04/12 09:52:07;;;;;;;1.88;1.75;;;12.40;99.90;;;;;;5029580;28;20049;-65
2023/04/12 09:54:43;;;;;;;0.10;0.10;;;12.20;99.90;;;;;;5032636;28;20161;-64
2023/04/12 09:57:11;;;;;;;0.10;0.10;;;12.20;99.90;;;;;;5025551;28;20504;-64
2023/04/12 09:59:41;;;;;;;0.60;0.40;;;12.10;99.90;;;;;;5027306;28;20064;-64
2023/04/12 10:02:21;;;;;;;1.70;1.60;;;12.10;99.90;;;;;;5020859;28;20045;-64
2023/04/12 10:04:47;;;;;;;0.10;0.10;;;12.10;99.90;;;;;;5030031;28;20136;-64
2023/04/12 10:07:13;;;;;;;0.32;0.30;;;12.40;99.90;;;;;;5023733;28;20057;-64
2023/04/12 10:09:40;;;;;;;0.50;0.50;;;12.50;99.90;;;;;;5033529;28;20413;-64
2023/04/12 10:12:07;;;;;;;0.10;0.10;;;12.60;99.90;;;;;;5023930;28;20088;-64
2023/04/12 10:14:33;;;;;;;0.10;0.10;;;12.60;99.90;;;;;;5016550;28;20130;-64
2023/04/12 10:17:01;;;;;;;0.52;0.52;;;12.60;99.90;;;;;;5017765;28;20125;-64
2023/04/12 10:19:28;;;;;;;0.13;0.13;;;12.80;99.90;;;;;;5031182;28;20115;-64
2023/04/12 10:21:55;;;;;;;0.03;0.03;;;13.20;99.90;;;;;;5032955;28;20053;-64
2023/04/12 10:24:25;;;;;;;0.10;0.10;;;13.30;99.90;;;;;;5023513;28;20461;-64
2023/04/12 10:26:54;;;;;;;0.10;0.10;;;13.50;99.90;;;;;;5032192;28;20041;-64
2023/04/12 10:29:25;;;;;;;0.80;0.80;;;13.40;99.90;;;;;;5014811;28;20489;-64
2023/04/12 10:31:56;;;;;;;0.10;0.10;;;13.30;99.90;;;;;;5026648;28;20049;-64
2023/04/12 10:34:29;;;;;;;0.00;0.00;;;13.10;99.90;;;;;;5018135;28;20052;-64
2023/04/12 10:36:55;;;;;;;;;;;12.80;99.90;;;;;;5025167;28;20497;-63
2023/04/12 10:39:53;;;;;;;0.00;0.00;;;13.00;99.90;;;;;;5028436;28;19925;-64
2023/04/12 10:42:28;;;;;;;0.10;0.10;;;12.80;99.90;;;;;;5029590;28;20049;-64
2023/04/12 10:45:13;;;;;;;6.93;2.08;;;12.50;99.90;;;;;;5015142;28;20065;-63
2023/04/12 10:47:48;;;;;;;2.53;0.40;;;12.40;99.90;;;;;;5024227;28;20129;-64
2023/04/12 10:50:25;;;;;;;0.13;0.13;;;12.40;99.90;;;;;;5024564;28;20065;-63
2023/04/12 10:53:12;;;;;;;0.80;0.80;;;12.30;99.90;;;;;;5026484;28;20045;-64
2023/04/12 10:55:38;;;;;;;0.52;0.52;;;12.60;99.90;;;;;;5019214;28;20065;-63
2023/04/12 10:58:04;;;;;;;0.35;0.35;;;12.90;99.90;;;;;;5018145;28;20057;-64
2023/04/12 11:01:08;;;;;;;0.20;0.20;;;13.10;99.90;;;;;;5022653;28;20389;-64
2023/04/12 11:03:34;;;;;;;;;;;13.30;99.90;;;;;;5018996;28;20045;-62
2023/04/12 11:06:02;;;;;;;0.00;0.00;;;13.30;99.90;;;;;;5030907;28;20012;-63
2023/04/12 11:08:29;;;;;;;0.10;0.10;;;13.10;99.90;;;;;;5015750;28;20030;-65
2023/04/12 11:11:02;;;;;;;0.00;0.00;;;13.10;99.90;;;;;;5025261;28;20488;-64
2023/04/12 11:13:33;;;;;;;0.10;0.10;;;13.30;99.90;;;;;;5019448;28;20600;-65
2023/04/12 11:16:06;;;;;;;0.00;0.00;;;13.30;99.90;;;;;;5017468;28;20041;-65
2023/04/12 11:18:35;;;;;;;0.10;0.10;;;13.20;99.90;;;;;;5019388;28;20088;-64
2023/04/12 11:21:02;;;;;;;0.10;0.10;;;13.30;99.90;;;;;;5022342;28;20172;-64
2023/04/12 11:23:29;;;;;;;0.10;0.10;;;13.10;99.90;;;;;;5020064;28;20054;-64
2023/04/12 11:25:56;;;;;;;0.10;0.10;;;12.80;99.90;;;;;;5020038;28;20171;-65
2023/04/12 11:28:22;;;;;;;0.00;0.00;;;12.70;99.90;;;;;;5026289;28;20189;-64
2023/04/12 11:30:49;;;;;;;0.68;0.68;;;13.00;99.90;;;;;;5016894;28;20165;-64
2023/04/12 11:33:36;;;;;;;6.20;1.60;;;13.10;99.90;;;;;;5024609;28;20042;-65
2023/04/12 11:36:13;;;;;;;0.38;0.38;;;13.10;99.90;;;;;;5021609;28;20555;-65
2023/04/12 11:38:39;;;;;;;3.35;1.02;;;13.10;99.90;;;;;;5006201;28;20073;-66
2023/04/12 11:41:06;;;;;;;0.10;0.10;;;12.90;99.90;;;;;;5028597;28;20082;-65
2023/04/12 11:43:34;;;;;;;2.38;0.90;;;13.10;99.90;;;;;;5034451;28;20056;-65
2023/04/12 11:46:00;;;;;;;0.10;0.10;;;13.10;99.90;;;;;;5033236;28;20045;-65
2023/04/12 11:48:27;;;;;;;0.63;0.47;;;13.10;99.90;;;;;;5021370;28;20073;-65
2023/04/12 11:50:54;;;;;;;0.22;0.22;;;13.20;99.90;;;;;;5026490;28;20099;-63
2023/04/12 11:53:23;;;;;;;0.75;0.75;;;13.80;99.90;;;;;;5031332;28;20057;-63
2023/04/12 11:55:49;;;;;;;0.10;0.10;;;13.90;99.90;;;;;;5020541;28;20061;-63
2023/04/12 11:58:16;;;;;;;0.00;0.00;;;14.00;99.90;;;;;;5026374;28;20451;-63
2023/04/12 12:00:44;;;;;;;0.10;0.10;;;14.10;99.90;;;;;;5031456;28;20044;-63
2023/04/12 12:03:09;;;;;;;0.00;0.00;;;14.70;99.90;;;;;;5020059;28;20054;-63
2023/04/12 12:05:40;;;;;;;0.10;0.10;;;14.60;99.90;;;;;;5025209;28;20038;-63
2023/04/12 12:08:07;;;;;;;0.40;0.40;;;14.60;99.90;;;;;;5031191;28;20544;-63
2023/04/12 12:10:37;;;;;;;0.30;0.30;;;15.00;99.90;;;;;;5031187;28;20566;-63
2023/04/12 12:13:12;;;;;;;0.08;0.08;;;14.80;99.90;;;;;;5014920;28;20042;-62
2023/04/12 12:15:37;;;;;;;0.20;0.20;;;14.70;99.90;;;;;;5013471;28;20451;-63
2023/04/12 12:18:07;;;;;;;0.10;0.10;;;14.60;99.90;;;;;;5017987;28;20133;-63
2023/04/12 12:20:37;;;;;;;0.30;0.30;;;14.70;99.90;;;;;;5013802;28;20046;-64
2023/04/12 12:23:03;;;;;;;0.00;0.00;;;14.80;99.90;;;;;;5013735;28;20052;-63
2023/04/12 12:25:28;;;;;;;0.20;0.20;;;14.30;99.90;;;;;;5018839;28;20053;-63
2023/04/12 12:27:56;;;;;;;0.00;0.00;;;14.60;99.90;;;;;;5015032;28;20079;-63
2023/04/12 12:30:22;;;;;;;4.95;0.32;;;14.40;99.90;;;;;;5015216;28;20119;-63
2023/04/12 12:32:50;;;;;;;0.20;0.20;;;14.30;99.90;;;;;;5017223;28;20466;-63
2023/04/12 12:35:18;;;;;;;0.00;0.00;;;14.10;99.90;;;;;;5009305;28;20050;-63
2023/04/12 12:37:57;;;;;;;0.10;0.10;;;14.70;99.90;;;;;;5009272;28;20034;-64
2023/04/12 12:40:33;;;;;;;0.20;0.20;;;14.90;99.90;;;;;;5018165;28;20041;-63
2023/04/12 12:42:59;;;;;;;0.35;0.35;;;15.10;99.90;;;;;;5019585;28;20156;-63
2023/04/12 12:45:27;;;;;;;1.73;1.05;;;15.20;99.90;;;;;;5019509;28;20073;-63
2023/04/12 12:48:01;;;;;;;0.00;0.00;;;15.20;99.90;;;;;;5020853;28;20049;-63
2023/04/12 12:50:31;;;;;;;0.10;0.10;;;14.90;99.90;;;;;;5021763;28;20812;-63
2023/04/12 12:53:01;;;;;;;0.22;0.22;;;14.90;99.90;;;;;;5018788;28;20042;-63
2023/04/12 12:55:29;;;;;;;0.05;0.05;;;14.80;99.90;;;;;;5026215;28;20046;-63
2023/04/12 12:57:56;;;;;;;5.47;1.33;;;15.00;99.90;;;;;;5010730;28;20068;-63
2023/04/12 13:00:24;;;;;;;0.30;0.30;;;14.80;99.90;;;;;;5020355;28;20086;-63